Time;durP1;ratioP1;P1;durP2;ratioP2;P2;SDS_P1;SDS_P2;PMS_P1;PMS_P2;Temp;Humidity;BMP_temperature;BMP_pressure;BME280_temperature;BME280_humidity;BME280_pressure;Samples;Min_cycle;Max_cycle;Signal;HPM_P1;HPM_P2
2024/01/24 00:02:16;;;;;;;23.50;7.58;;;;;;;2.59;91.91;100779.13;1812685;78;28030;-42
2024/01/24 00:04:42;;;;;;;22.55;7.78;;;;;;;2.58;91.79;100786.05;1812591;78;25752;-42
2024/01/24 00:07:09;;;;;;;23.57;7.58;;;;;;;2.54;91.86;100772.37;1812641;79;25464;-41
2024/01/24 00:09:35;;;;;;;20.85;7.17;;;;;;;2.53;91.90;100779.29;1812623;78;25509;-41
2024/01/24 00:12:02;;;;;;;28.70;7.47;;;;;;;2.48;92.12;100776.00;1812650;78;25375;-40
2024/01/24 00:14:28;;;;;;;22.37;7.22;;;;;;;2.44;91.99;100781.56;1814309;78;28082;-41
2024/01/24 00:16:54;;;;;;;19.65;7.17;;;;;;;2.45;92.13;100786.36;1815698;79;25876;-41
2024/01/24 00:19:21;;;;;;;20.50;7.05;;;;;;;2.41;92.27;100786.84;1815776;78;25402;-41
2024/01/24 00:21:47;;;;;;;27.95;7.37;;;;;;;2.39;92.36;100784.14;1811223;79;26108;-42
2024/01/24 00:24:13;;;;;;;18.92;7.12;;;;;;;2.36;92.33;100783.29;1807248;79;25397;-43
2024/01/24 00:26:39;;;;;;;22.93;6.55;;;;;;;2.34;92.52;100784.86;1807217;78;28136;-41
2024/01/24 00:29:06;;;;;;;26.02;7.67;;;;;;;2.30;92.30;100774.90;1807153;78;25647;-41
2024/01/24 00:31:32;;;;;;;22.70;6.67;;;;;;;2.27;92.53;100776.20;1807234;78;25450;-41
2024/01/24 00:33:58;;;;;;;20.70;6.47;;;;;;;2.23;92.73;100765.20;1807149;78;25559;-44
2024/01/24 00:36:24;;;;;;;15.63;6.55;;;;;;;2.20;92.73;100764.88;1807256;78;25452;-42
2024/01/24 00:38:52;;;;;;;22.75;7.90;;;;;;;2.17;92.75;100772.03;1807235;78;27442;-41
2024/01/24 00:41:18;;;;;;;23.60;9.23;;;;;;;2.15;93.05;100774.14;1807158;78;25711;-41
2024/01/24 00:43:44;;;;;;;19.70;6.40;;;;;;;2.13;93.24;100772.21;1807196;78;25449;-42
2024/01/24 00:46:11;;;;;;;17.12;6.42;;;;;;;2.10;93.05;100770.05;1807184;78;25575;-42
2024/01/24 00:48:37;;;;;;;25.62;7.72;;;;;;;2.08;93.14;100765.45;1807219;79;25439;-41
2024/01/24 00:51:03;;;;;;;19.42;6.78;;;;;;;2.04;93.22;100756.62;1807198;79;27591;-43
2024/01/24 00:53:33;;;;;;;25.48;7.47;;;;;;;2.01;93.35;100750.92;1807090;79;25574;-42
2024/01/24 00:55:59;;;;;;;23.10;6.53;;;;;;;1.99;93.39;100765.87;1807363;78;25390;-41
2024/01/24 00:58:25;;;;;;;24.23;7.53;;;;;;;1.97;93.51;100763.14;1807181;79;25539;-41
2024/01/24 01:00:51;;;;;;;25.45;7.70;;;;;;;1.94;93.80;100761.77;1807224;79;25370;-41
2024/01/24 01:03:18;;;;;;;22.80;7.08;;;;;;;1.93;94.05;100772.69;1807209;78;27630;-44
2024/01/24 01:05:44;;;;;;;22.55;6.78;;;;;;;1.91;93.89;100765.42;1807147;78;25809;-41
2024/01/24 01:08:10;;;;;;;21.42;7.58;;;;;;;1.89;93.74;100752.34;1807189;79;25438;-41
2024/01/24 01:10:36;;;;;;;21.12;7.37;;;;;;;1.86;93.78;100740.28;1807174;78;25527;-42
2024/01/24 01:13:03;;;;;;;21.75;7.92;;;;;;;1.84;93.60;100734.92;1807191;78;25446;-40
2024/01/24 01:15:29;;;;;;;19.70;7.22;;;;;;;1.84;93.97;100739.72;1807520;78;28101;-41
2024/01/24 01:17:56;;;;;;;26.68;7.95;;;;;;;1.82;94.13;100733.82;1809592;79;25449;-41
2024/01/24 01:20:22;;;;;;;24.75;8.00;;;;;;;1.83;94.08;100727.95;1812616;78;25437;-41
2024/01/24 01:22:48;;;;;;;25.43;7.78;;;;;;;1.82;94.02;100716.98;1812564;78;25598;-43
2024/01/24 01:25:14;;;;;;;22.42;6.53;;;;;;;1.83;94.16;100702.61;1812642;79;25392;-42
2024/01/24 01:27:41;;;;;;;21.25;7.30;;;;;;;1.83;94.27;100707.95;1812635;78;27610;-41
2024/01/24 01:30:08;;;;;;;27.65;7.45;;;;;;;1.80;94.01;100691.08;1812574;78;25652;-41
2024/01/24 01:32:34;;;;;;;20.88;7.33;;;;;;;1.80;94.23;100675.08;1812588;79;25443;-40
2024/01/24 01:35:00;;;;;;;25.68;7.33;;;;;;;1.78;94.19;100667.31;1812697;79;25463;-41
2024/01/24 01:37:26;;;;;;;26.75;8.08;;;;;;;1.77;94.21;100651.55;1812774;78;25470;-41
2024/01/24 01:39:52;;;;;;;21.10;8.13;;;;;;;1.75;94.00;100638.98;1812761;78;28060;-41
2024/01/24 01:42:19;;;;;;;25.40;7.22;;;;;;;1.72;93.92;100631.46;1812684;78;25705;-41
2024/01/24 01:44:46;;;;;;;21.57;8.00;;;;;;;1.68;93.89;100621.80;1812779;78;25369;-41
2024/01/24 01:47:17;;;;;;;19.95;6.87;;;;;;;1.64;93.74;100616.15;1812704;79;25466;-42
2024/01/24 01:49:44;;;;;;;24.98;7.08;;;;;;;1.59;93.91;100620.06;1812805;79;25333;-44
2024/01/24 01:52:11;;;;;;;27.75;7.72;;;;;;;1.57;93.96;100627.50;1812740;79;27504;-41
2024/01/24 01:54:41;;;;;;;23.95;7.95;;;;;;;1.53;94.00;100610.34;1812663;79;25360;-41
2024/01/24 01:57:10;;;;;;;23.07;7.70;;;;;;;1.51;94.25;100600.98;1812895;78;25422;-41
2024/01/24 01:59:37;;;;;;;21.60;7.83;;;;;;;1.47;94.23;100602.00;1812890;78;25480;-42
2024/01/24 02:02:04;;;;;;;28.85;7.85;;;;;;;1.42;94.52;100592.05;1812783;79;25365;-41
2024/01/24 02:04:30;;;;;;;17.92;7.47;;;;;;;1.40;94.64;100593.35;1812773;78;27657;-41
2024/01/24 02:06:56;;;;;;;17.77;7.60;;;;;;;1.37;94.85;100585.83;1812652;79;25414;-41
2024/01/24 02:09:23;;;;;;;23.92;7.58;;;;;;;1.35;95.15;100582.60;1812753;79;25397;-42
2024/01/24 02:11:50;;;;;;;25.45;8.53;;;;;;;1.34;95.20;100584.97;1812705;79;26069;-41
2024/01/24 02:14:16;;;;;;;25.97;8.03;;;;;;;1.32;95.17;100584.41;1812644;79;25433;-42
2024/01/24 02:16:43;;;;;;;23.45;8.60;;;;;;;1.30;95.57;100588.64;1812775;79;27542;-40
2024/01/24 02:19:09;;;;;;;27.20;8.55;;;;;;;1.30;95.81;100586.78;1812648;78;25511;-40
2024/01/24 02:21:35;;;;;;;21.87;7.70;;;;;;;1.30;96.03;100579.31;1812735;79;25401;-41
2024/01/24 02:24:02;;;;;;;23.22;7.35;;;;;;;1.30;96.06;100581.98;1812711;79;26009;-41
2024/01/24 02:26:28;;;;;;;23.38;7.72;;;;;;;1.30;96.04;100579.31;1812768;79;25445;-42
2024/01/24 02:28:54;;;;;;;30.35;8.03;;;;;;;1.31;96.17;100563.59;1812726;78;27557;-40
2024/01/24 02:31:20;;;;;;;19.23;7.80;;;;;;;1.31;96.05;100560.92;1812624;79;25429;-42
2024/01/24 02:33:46;;;;;;;19.37;7.30;;;;;;;1.33;96.28;100557.52;1812689;79;25430;-42
2024/01/24 02:36:14;;;;;;;25.43;7.42;;;;;;;1.34;96.34;100552.98;1812685;79;25556;-40
2024/01/24 02:38:44;;;;;;;24.00;8.25;;;;;;;1.36;96.55;100549.02;1812736;79;25387;-40
2024/01/24 02:41:10;;;;;;;30.12;8.05;;;;;;;1.36;96.53;100539.69;1812863;78;27560;-43
2024/01/24 02:43:36;;;;;;;23.62;8.58;;;;;;;1.38;96.44;100521.62;1812633;78;25473;-43
2024/01/24 02:46:03;;;;;;;25.35;8.63;;;;;;;1.39;96.56;100517.09;1812731;78;25431;-42
2024/01/24 02:48:29;;;;;;;24.10;7.67;;;;;;;1.40;96.57;100509.39;1812672;79;25456;-42
2024/01/24 02:50:55;;;;;;;21.35;7.15;;;;;;;1.42;96.70;100509.95;1812721;79;25458;-44
2024/01/24 02:53:22;;;;;;;20.20;6.90;;;;;;;1.42;96.59;100497.41;1812694;78;27464;-43
2024/01/24 02:55:48;;;;;;;23.27;7.85;;;;;;;1.42;96.43;100490.75;1812627;78;25431;-42
2024/01/24 02:58:14;;;;;;;20.65;7.60;;;;;;;1.43;96.48;100499.04;1812715;78;25459;-42
2024/01/24 03:00:40;;;;;;;24.37;7.50;;;;;;;1.42;96.32;100496.08;1812678;79;25467;-43
2024/01/24 03:03:07;;;;;;;26.77;7.78;;;;;;;1.42;96.32;100487.28;1812723;79;25360;-44
2024/01/24 03:05:33;;;;;;;22.15;7.37;;;;;;;1.40;96.12;100478.20;1812731;78;27461;-43
2024/01/24 03:07:59;;;;;;;19.90;7.97;;;;;;;1.40;96.21;100474.73;1812609;79;25469;-41
2024/01/24 03:10:26;;;;;;;18.92;7.65;;;;;;;1.40;96.22;100472.06;1812699;78;25401;-43
2024/01/24 03:12:53;;;;;;;23.15;7.50;;;;;;;1.39;96.17;100469.11;1812632;79;25513;-43
2024/01/24 03:15:20;;;;;;;21.50;8.93;;;;;;;1.37;96.17;100465.88;1809086;78;25416;-43
2024/01/24 03:17:47;;;;;;;19.12;6.33;;;;;;;1.35;96.14;100458.13;1804702;79;27481;-42
2024/01/24 03:20:14;;;;;;;24.25;7.00;;;;;;;1.32;96.20;100439.95;1804627;79;25465;-44
2024/01/24 03:22:44;;;;;;;25.23;7.15;;;;;;;1.30;96.15;100426.87;1805899;79;25432;-44
2024/01/24 03:25:14;;;;;;;19.82;7.03;;;;;;;1.30;96.00;100408.75;1807244;79;25465;-42
2024/01/24 03:27:39;;;;;;;19.05;6.53;;;;;;;1.26;95.81;100403.61;1807213;78;25441;-41
2024/01/24 03:30:06;;;;;;;23.15;8.28;;;;;;;1.23;95.77;100399.59;1807272;79;27451;-43
2024/01/24 03:32:32;;;;;;;16.65;6.58;;;;;;;1.21;95.96;100395.03;1807166;79;25538;-42
2024/01/24 03:35:01;;;;;;;16.50;7.10;;;;;;;1.18;95.76;100383.52;1807243;78;25466;-43
2024/01/24 03:37:27;;;;;;;22.30;6.53;;;;;;;1.15;95.69;100385.34;1807395;78;25664;-41
2024/01/24 03:39:54;;;;;;;18.73;7.15;;;;;;;1.12;95.74;100380.48;1807279;79;25454;-42
2024/01/24 03:42:21;;;;;;;20.88;6.55;;;;;;;1.09;96.11;100376.47;1807255;78;27549;-43
2024/01/24 03:44:47;;;;;;;16.02;6.97;;;;;;;1.07;95.92;100390.56;1807192;79;25574;-42
2024/01/24 03:47:15;;;;;;;17.07;6.58;;;;;;;1.04;96.02;100384.39;1807274;79;25428;-44
2024/01/24 03:49:41;;;;;;;20.82;6.30;;;;;;;1.02;95.93;100388.33;1807226;79;25568;-44
2024/01/24 03:52:07;;;;;;;19.05;7.97;;;;;;;1.00;96.14;100389.10;1807280;78;25387;-41
2024/01/24 03:54:34;;;;;;;28.15;8.55;;;;;;;0.97;96.10;100379.75;1807191;79;27509;-41
2024/01/24 03:57:00;;;;;;;23.22;9.43;;;;;;;0.95;96.40;100373.04;1807130;79;25342;-42
2024/01/24 03:59:26;;;;;;;18.65;7.58;;;;;;;0.94;96.51;100373.58;1807255;79;25376;-41
2024/01/24 04:01:52;;;;;;;21.95;8.48;;;;;;;0.90;96.55;100368.44;1807226;79;25482;-42
2024/01/24 04:04:18;;;;;;;30.08;8.68;;;;;;;0.90;96.77;100355.95;1807279;78;25419;-41
2024/01/24 04:06:45;;;;;;;23.92;7.95;;;;;;;0.92;96.82;100341.05;1807245;78;27189;-42
2024/01/24 04:09:11;;;;;;;26.70;8.48;;;;;;;0.91;97.04;100344.22;1807145;78;25381;-41
2024/01/24 04:11:40;;;;;;;23.12;8.33;;;;;;;0.92;97.78;100337.06;1807224;79;25361;-42
2024/01/24 04:14:07;;;;;;;23.00;8.20;;;;;;;0.92;97.86;100322.41;1807300;79;30440;-42
2024/01/24 04:16:37;;;;;;;22.45;8.58;;;;;;;0.93;97.60;100316.02;1807250;79;25707;-41
2024/01/24 04:19:03;;;;;;;21.77;8.18;;;;;;;0.94;97.57;100308.32;1807239;79;27434;-43
2024/01/24 04:21:30;;;;;;;22.15;7.90;;;;;;;0.95;97.52;100289.14;1807130;79;25357;-42
2024/01/24 04:23:56;;;;;;;21.40;7.65;;;;;;;0.95;97.39;100286.48;1807208;79;25370;-46
2024/01/24 04:26:22;;;;;;;22.62;7.15;;;;;;;0.97;97.33;100280.38;1807182;78;25527;-42
2024/01/24 04:28:48;;;;;;;23.35;7.83;;;;;;;1.00;97.21;100271.89;1807283;78;25379;-43
2024/01/24 04:31:15;;;;;;;24.47;8.28;;;;;;;1.01;97.20;100271.66;1807228;79;27437;-43
2024/01/24 04:33:41;;;;;;;22.58;7.67;;;;;;;1.02;97.01;100251.14;1807176;78;25366;-42
2024/01/24 04:36:09;;;;;;;23.12;7.85;;;;;;;1.03;96.92;100248.77;1807333;79;25430;-43
2024/01/24 04:38:38;;;;;;;17.52;7.55;;;;;;;1.03;96.95;100240.78;1807290;79;25471;-42
2024/01/24 04:41:05;;;;;;;19.40;7.92;;;;;;;1.03;96.87;100234.91;1807572;78;25433;-42
2024/01/24 04:43:31;;;;;;;20.55;7.83;;;;;;;1.03;96.77;100225.59;1807422;78;27404;-42
2024/01/24 04:45:57;;;;;;;25.97;8.83;;;;;;;1.06;96.68;100233.63;1807272;79;25729;-43
2024/01/24 04:48:23;;;;;;;24.02;8.48;;;;;;;1.06;96.74;100221.64;1807276;78;25386;-44
2024/01/24 04:50:49;;;;;;;22.67;7.65;;;;;;;1.06;96.75;100217.11;1807354;79;26063;-42
2024/01/24 04:53:15;;;;;;;24.63;9.95;;;;;;;1.08;96.66;100211.00;1807302;79;25355;-44
2024/01/24 04:55:41;;;;;;;16.62;7.30;;;;;;;1.11;96.49;100207.05;1807219;78;27533;-41
2024/01/24 04:58:07;;;;;;;27.32;8.30;;;;;;;1.13;96.41;100198.28;1807118;79;25760;-42
2024/01/24 05:00:34;;;;;;;18.23;7.45;;;;;;;1.14;96.26;100182.55;1807210;78;25448;-42
2024/01/24 05:03:00;;;;;;;18.85;7.33;;;;;;;1.17;96.11;100170.61;1807177;78;25476;-42
2024/01/24 05:05:26;;;;;;;15.70;6.85;;;;;;;1.18;96.00;100171.70;1807207;79;25443;-42
2024/01/24 05:07:52;;;;;;;16.02;7.85;;;;;;;1.20;95.89;100164.25;1807209;78;27533;-43
2024/01/24 05:10:19;;;;;;;18.45;7.30;;;;;;;1.21;95.74;100153.88;1807138;78;25683;-44
2024/01/24 05:12:45;;;;;;;19.50;6.75;;;;;;;1.23;95.58;100145.11;1807210;79;25433;-47
2024/01/24 05:15:12;;;;;;;22.25;8.25;;;;;;;1.24;95.45;100143.23;1807036;79;26126;-41
2024/01/24 05:17:39;;;;;;;21.82;8.03;;;;;;;1.26;95.29;100125.13;1807246;79;25399;-42
2024/01/24 05:20:07;;;;;;;19.73;7.42;;;;;;;1.26;95.17;100121.96;1807176;79;27462;-42
2024/01/24 05:22:33;;;;;;;17.60;7.37;;;;;;;1.27;95.06;100118.22;1807096;79;25474;-44
2024/01/24 05:24:59;;;;;;;21.50;7.60;;;;;;;1.28;94.95;100127.84;1807190;79;25373;-43
2024/01/24 05:27:25;;;;;;;20.72;7.15;;;;;;;1.30;94.84;100120.39;1807162;78;25500;-46
2024/01/24 05:29:52;;;;;;;19.90;7.60;;;;;;;1.31;94.80;100117.19;1807210;78;25438;-42
2024/01/24 05:32:18;;;;;;;20.23;7.75;;;;;;;1.34;94.55;100117.23;1807195;79;27432;-42
2024/01/24 05:34:44;;;;;;;20.92;7.58;;;;;;;1.36;94.48;100105.78;1807042;79;25376;-42
2024/01/24 05:37:11;;;;;;;20.95;7.97;;;;;;;1.37;94.29;100091.41;1807180;78;25426;-42
2024/01/24 05:39:37;;;;;;;23.38;6.92;;;;;;;1.37;94.17;100082.88;1807137;79;25534;-41
2024/01/24 05:42:04;;;;;;;15.40;6.67;;;;;;;1.40;93.94;100077.59;1807188;79;25389;-42
2024/01/24 05:44:30;;;;;;;17.10;7.67;;;;;;;1.40;93.91;100070.92;1807190;78;27457;-44
2024/01/24 05:46:56;;;;;;;23.67;7.50;;;;;;;1.41;93.88;100073.84;1807081;79;25549;-41
2024/01/24 05:49:22;;;;;;;20.75;7.90;;;;;;;1.42;93.61;100062.14;1807168;78;25446;-43
2024/01/24 05:51:48;;;;;;;18.07;7.67;;;;;;;1.44;93.09;100062.69;1807123;79;25506;-43
2024/01/24 05:54:15;;;;;;;23.60;7.53;;;;;;;1.48;93.15;100049.11;1807170;79;25369;-41
2024/01/24 05:56:41;;;;;;;23.02;7.87;;;;;;;1.52;93.25;100026.23;1807154;78;28071;-41
2024/01/24 05:59:07;;;;;;;20.95;7.62;;;;;;;1.53;93.20;100013.16;1807076;79;25531;-43
2024/01/24 06:01:33;;;;;;;20.82;7.58;;;;;;;1.56;93.01;100007.33;1807195;79;25360;-41
2024/01/24 06:03:59;;;;;;;19.52;8.25;;;;;;;1.59;92.71;99994.03;1807158;79;25479;-41
2024/01/24 06:06:25;;;;;;;18.07;6.87;;;;;;;1.61;92.53;99995.36;1807189;78;25436;-42
2024/01/24 06:08:52;;;;;;;19.57;7.90;;;;;;;1.63;92.62;99987.91;1807163;78;27468;-42
2024/01/24 06:11:18;;;;;;;23.55;8.55;;;;;;;1.65;92.52;99987.66;1807058;79;25398;-42
2024/01/24 06:13:44;;;;;;;18.55;7.83;;;;;;;1.66;92.22;99982.61;1807116;79;25391;-41
2024/01/24 06:16:11;;;;;;;20.00;8.80;;;;;;;1.68;92.13;99963.15;1807180;78;25485;-42
2024/01/24 06:18:37;;;;;;;19.73;7.12;;;;;;;1.71;91.90;99971.97;1807412;79;25455;-42
2024/01/24 06:21:03;;;;;;;18.95;8.35;;;;;;;1.73;91.75;99965.84;1812008;78;27583;-42
2024/01/24 06:23:30;;;;;;;20.35;7.62;;;;;;;1.75;91.69;99962.37;1812200;79;25507;-41
2024/01/24 06:25:56;;;;;;;21.57;8.13;;;;;;;1.78;91.72;99955.20;1812328;78;25463;-41
2024/01/24 06:28:22;;;;;;;18.10;7.62;;;;;;;1.80;91.63;99956.28;1812304;78;26061;-41
2024/01/24 06:30:48;;;;;;;21.05;7.80;;;;;;;1.82;91.62;99974.98;1812361;79;25444;-42
2024/01/24 06:33:14;;;;;;;22.48;8.50;;;;;;;1.84;91.53;99952.84;1812437;78;27420;-42
2024/01/24 06:35:41;;;;;;;16.65;6.28;;;;;;;1.89;91.33;99952.59;1812568;78;25425;-42
2024/01/24 06:38:07;;;;;;;17.20;7.15;;;;;;;1.90;91.18;99934.20;1812713;78;25436;-42
2024/01/24 06:40:33;;;;;;;17.92;6.60;;;;;;;1.93;91.07;99935.81;1812688;78;25587;-42
2024/01/24 06:42:59;;;;;;;25.15;8.23;;;;;;;1.96;91.36;99937.14;1812747;79;25385;-42
2024/01/24 06:45:25;;;;;;;25.10;9.28;;;;;;;1.99;91.68;99928.12;1812691;79;28106;-42
2024/01/24 06:47:52;;;;;;;24.52;7.87;;;;;;;1.99;92.07;99912.63;1812620;79;25457;-42
2024/01/24 06:50:18;;;;;;;26.82;8.08;;;;;;;1.93;92.36;99903.02;1812722;78;25375;-42
2024/01/24 06:52:45;;;;;;;22.67;7.55;;;;;;;1.87;93.03;99898.17;1812681;79;25455;-42
2024/01/24 06:55:13;;;;;;;25.77;9.68;;;;;;;1.82;93.29;99906.15;1812711;79;25423;-41
2024/01/24 06:57:39;;;;;;;18.62;7.85;;;;;;;1.75;93.58;99898.38;1812701;79;28017;-42
2024/01/24 07:00:08;;;;;;;29.32;8.43;;;;;;;1.67;94.00;99889.03;1812628;78;25423;-42
2024/01/24 07:02:34;;;;;;;19.67;6.67;;;;;;;1.56;94.31;99882.03;1812943;79;25439;-41
2024/01/24 07:05:02;;;;;;;19.07;8.50;;;;;;;1.45;94.45;99863.06;1812664;79;25506;-41
2024/01/24 07:07:29;;;;;;;20.82;8.70;;;;;;;1.34;94.94;99860.86;1812721;79;25439;-42
2024/01/24 07:09:55;;;;;;;23.22;7.80;;;;;;;1.26;95.03;99852.01;1812685;78;27469;-41
2024/01/24 07:12:22;;;;;;;20.35;7.17;;;;;;;1.14;95.27;99818.91;1812606;78;25465;-43
2024/01/24 07:14:48;;;;;;;20.15;8.53;;;;;;;1.04;95.66;99803.69;1812651;79;25384;-42
2024/01/24 07:17:15;;;;;;;20.57;8.88;;;;;;;0.93;96.03;99788.16;1812593;78;25484;-42
2024/01/24 07:19:41;;;;;;;19.12;8.55;;;;;;;0.86;97.29;99769.48;1812693;78;25369;-41
2024/01/24 07:22:07;;;;;;;20.05;9.03;;;;;;;0.77;97.18;99751.03;1812675;78;27490;-42
2024/01/24 07:24:34;;;;;;;20.65;9.10;;;;;;;0.69;97.86;99739.02;1812572;78;25420;-42
2024/01/24 07:27:00;;;;;;;22.82;8.55;;;;;;;0.64;98.05;99733.67;1812675;79;25441;-42
2024/01/24 07:29:26;;;;;;;23.55;8.80;;;;;;;0.58;98.76;99708.89;1812634;79;25517;-41
2024/01/24 07:31:52;;;;;;;21.57;8.63;;;;;;;0.55;99.04;99716.05;1812701;79;25443;-41
2024/01/24 07:34:19;;;;;;;17.77;7.78;;;;;;;0.51;100.00;99705.63;1812626;79;27444;-42
2024/01/24 07:36:45;;;;;;;19.92;8.08;;;;;;;0.50;100.00;99696.05;1812608;78;25440;-42
2024/01/24 07:39:11;;;;;;;21.95;7.97;;;;;;;0.49;100.00;99680.59;1812672;78;25449;-41
2024/01/24 07:41:38;;;;;;;22.70;8.23;;;;;;;0.49;100.00;99685.92;1812669;78;25498;-43
2024/01/24 07:44:04;;;;;;;22.45;8.08;;;;;;;0.49;100.00;99661.97;1812721;78;25425;-41
2024/01/24 07:46:32;;;;;;;20.72;7.70;;;;;;;0.53;100.00;99644.98;1812686;78;27450;-42
2024/01/24 07:48:58;;;;;;;17.75;7.85;;;;;;;0.53;100.00;99664.41;1812605;79;25373;-41
2024/01/24 07:51:24;;;;;;;19.80;7.60;;;;;;;0.58;100.00;99640.20;1812665;79;25436;-42
2024/01/24 07:53:51;;;;;;;18.20;7.53;;;;;;;0.58;100.00;99633.55;1812624;78;25552;-43
2024/01/24 07:56:17;;;;;;;19.52;7.53;;;;;;;0.62;100.00;99643.96;1812707;78;25348;-42
2024/01/24 07:58:43;;;;;;;17.77;7.50;;;;;;;0.64;100.00;99631.98;1812673;78;26949;-43
2024/01/24 08:01:09;;;;;;;16.97;7.20;;;;;;;0.66;100.00;99617.09;1812602;79;25564;-43
2024/01/24 08:03:35;;;;;;;16.52;7.30;;;;;;;0.69;100.00;99633.88;1812670;79;25368;-43
2024/01/24 08:06:02;;;;;;;19.35;6.97;;;;;;;0.71;100.00;99621.09;1812664;78;25464;-43
2024/01/24 08:08:28;;;;;;;21.57;7.47;;;;;;;0.72;100.00;99619.52;1812716;79;25353;-43
2024/01/24 08:10:54;;;;;;;20.02;7.50;;;;;;;0.76;100.00;99592.38;1812662;79;27464;-42
2024/01/24 08:13:20;;;;;;;15.30;6.35;;;;;;;0.76;100.00;99585.18;1812573;79;25701;-44
2024/01/24 08:15:47;;;;;;;20.88;7.67;;;;;;;0.81;100.00;99579.08;1812550;78;25371;-44
2024/01/24 08:18:14;;;;;;;21.45;8.13;;;;;;;0.85;100.00;99550.34;1812670;79;25472;-43
2024/01/24 08:20:40;;;;;;;15.65;6.97;;;;;;;0.88;100.00;99543.14;1812697;78;25353;-44
2024/01/24 08:23:07;;;;;;;16.93;9.05;;;;;;;0.92;100.00;99534.13;1812656;79;28131;-44
2024/01/24 08:25:33;;;;;;;19.55;7.25;;;;;;;0.97;100.00;99537.30;1812577;79;25460;-43
2024/01/24 08:27:59;;;;;;;14.50;6.78;;;;;;;1.02;100.00;99521.34;1801531;79;25459;-44
2024/01/24 08:30:25;;;;;;;11.95;6.40;;;;;;;1.07;100.00;99524.83;1812604;79;26071;-44
2024/01/24 08:32:51;;;;;;;20.90;7.22;;;;;;;1.13;100.00;99524.83;1812689;78;25452;-44
2024/01/24 08:35:18;;;;;;;12.18;6.90;;;;;;;1.18;100.00;99524.84;1812632;78;28139;-44
2024/01/24 08:37:44;;;;;;;15.35;7.28;;;;;;;1.24;100.00;99518.43;1812568;79;25446;-44
2024/01/24 08:40:11;;;;;;;17.25;6.40;;;;;;;1.29;100.00;99495.78;1812663;79;25457;-46
2024/01/24 08:42:38;;;;;;;10.88;6.42;;;;;;;1.34;100.00;99506.98;1812604;79;25474;-44
2024/01/24 08:45:05;;;;;;;21.40;8.20;;;;;;;1.38;100.00;99491.53;1812679;79;25364;-44
2024/01/24 08:47:31;;;;;;;14.30;6.25;;;;;;;1.45;100.00;99489.94;1812673;79;27467;-45
2024/01/24 08:49:57;;;;;;;14.05;6.80;;;;;;;1.49;100.00;99497.10;1812531;79;25373;-46
2024/01/24 08:52:25;;;;;;;12.15;5.85;;;;;;;1.55;100.00;99475.27;1812648;78;25400;-44
2024/01/24 08:54:51;;;;;;;13.18;6.60;;;;;;;1.59;100.00;99480.31;1812597;78;25489;-44
2024/01/24 08:57:17;;;;;;;12.30;6.00;;;;;;;1.63;100.00;99473.91;1812708;79;25364;-45
2024/01/24 08:59:43;;;;;;;10.10;6.00;;;;;;;1.66;100.00;99480.03;1812655;79;28125;-44
2024/01/24 09:02:09;;;;;;;13.22;5.45;;;;;;;1.68;100.00;99452.56;1812566;79;25445;-44
2024/01/24 09:04:36;;;;;;;11.73;6.33;;;;;;;1.71;100.00;99460.57;1812678;78;25475;-45
2024/01/24 09:07:03;;;;;;;17.12;6.28;;;;;;;1.75;100.00;99461.62;1812594;79;25472;-48
2024/01/24 09:09:32;;;;;;;16.05;6.90;;;;;;;1.75;100.00;99446.41;1812671;78;25449;-46
2024/01/24 09:11:58;;;;;;;12.15;6.72;;;;;;;1.79;100.00;99439.48;1812595;78;28053;-46
2024/01/24 09:14:25;;;;;;;11.97;6.95;;;;;;;1.82;100.00;99452.80;1812511;79;25471;-45
2024/01/24 09:16:52;;;;;;;11.22;6.20;;;;;;;1.83;100.00;99444.52;1810302;78;25369;-46
2024/01/24 09:19:18;;;;;;;13.85;5.97;;;;;;;1.86;100.00;99421.31;1807154;79;25451;-46
2024/01/24 09:21:44;;;;;;;13.70;6.17;;;;;;;1.89;100.00;99423.98;1807221;79;25397;-46
2024/01/24 09:24:11;;;;;;;12.10;5.92;;;;;;;1.91;100.00;99405.02;1807193;79;27468;-47
2024/01/24 09:26:37;;;;;;;10.25;5.95;;;;;;;1.93;100.00;99429.58;1807145;78;25496;-46
2024/01/24 09:29:03;;;;;;;10.98;5.70;;;;;;;1.96;100.00;99409.00;1807185;79;25362;-47
2024/01/24 09:31:29;;;;;;;11.40;5.83;;;;;;;1.97;100.00;99415.94;1807163;78;25948;-46
2024/01/24 09:33:56;;;;;;;13.72;6.45;;;;;;;1.98;100.00;99393.55;1807270;78;25417;-46
2024/01/24 09:36:27;;;;;;;10.78;5.70;;;;;;;2.01;100.00;99389.79;1807148;79;27518;-47
2024/01/24 09:38:53;;;;;;;10.25;6.10;;;;;;;2.02;100.00;99377.24;1807195;78;25388;-46
2024/01/24 09:41:20;;;;;;;10.53;5.62;;;;;;;2.05;100.00;99376.70;1807231;78;25423;-47
2024/01/24 09:43:48;;;;;;;12.33;6.42;;;;;;;2.06;100.00;99362.30;1807184;79;26095;-47
2024/01/24 09:46:19;;;;;;;14.93;6.08;;;;;;;2.08;100.00;99380.67;1807232;79;25354;-46
2024/01/24 09:48:46;;;;;;;14.50;6.20;;;;;;;2.09;100.00;99355.06;1807227;79;27458;-44
2024/01/24 09:51:16;;;;;;;10.32;5.92;;;;;;;2.09;100.00;99348.39;1807108;79;25521;-45
2024/01/24 09:53:46;;;;;;;10.72;5.65;;;;;;;2.12;100.00;99340.39;1807250;79;25386;-48
2024/01/24 09:56:14;;;;;;;14.18;6.00;;;;;;;2.14;100.00;99343.56;1807397;78;25492;-46
2024/01/24 09:58:40;;;;;;;12.85;6.05;;;;;;;2.18;100.00;99317.92;1807407;79;25439;-47
2024/01/24 10:01:12;;;;;;;9.08;5.95;;;;;;;2.20;100.00;99308.58;1807362;78;27526;-46
2024/01/24 10:03:40;;;;;;;11.10;5.25;;;;;;;2.21;100.00;99302.18;1807271;79;25382;-45
2024/01/24 10:06:09;;;;;;;13.08;6.70;;;;;;;2.24;100.00;99310.15;1807372;79;25387;-46
2024/01/24 10:08:36;;;;;;;9.50;5.40;;;;;;;2.28;100.00;99319.73;1807452;79;25458;-46
2024/01/24 10:11:02;;;;;;;13.78;6.67;;;;;;;2.33;100.00;99308.47;1807419;79;25398;-45
2024/01/24 10:13:31;;;;;;;10.08;6.03;;;;;;;2.37;100.00;99314.87;1807374;79;27547;-49
2024/01/24 10:15:59;;;;;;;9.90;5.85;;;;;;;2.39;100.00;99315.37;1807392;79;25404;-46
2024/01/24 10:18:25;;;;;;;30.82;19.90;;;;;;;2.44;100.00;99319.89;1796575;78;25431;-47
2024/01/24 10:20:51;;;;;;;16.65;9.10;;;;;;;2.50;100.00;99308.08;1807296;79;26092;-46
2024/01/24 10:23:18;;;;;;;11.22;5.10;;;;;;;2.55;100.00;99296.57;1796398;79;25462;-48
2024/01/24 10:25:44;;;;;;;20.15;17.85;;;;;;;2.63;100.00;99307.98;1807379;79;27526;-45
2024/01/24 10:28:13;;;;;;;8.45;5.35;;;;;;;2.68;100.00;99292.47;1807181;79;25356;-45
2024/01/24 10:30:41;;;;;;;8.15;4.80;;;;;;;2.72;100.00;99293.49;1807440;79;25351;-46
2024/01/24 10:33:12;;;;;;;7.97;5.00;;;;;;;2.76;100.00;99279.30;1805981;78;25568;-47
2024/01/24 10:35:39;;;;;;;8.23;4.42;;;;;;;2.79;100.00;99289.95;1807305;79;25449;-46
2024/01/24 10:38:05;;;;;;;6.70;3.90;;;;;;;2.82;100.00;99272.03;1807336;78;27528;-46
2024/01/24 10:40:32;;;;;;;60.75;56.33;;;;;;;2.86;100.00;99270.92;1807211;78;25667;-47
2024/01/24 10:43:03;;;;;;;7.15;4.10;;;;;;;2.91;100.00;99266.34;1807326;79;25375;-46
2024/01/24 10:45:32;;;;;;;12.68;5.62;;;;;;;2.94;100.00;99252.41;1807486;78;25679;-45
2024/01/24 10:47:59;;;;;;;9.75;5.50;;;;;;;3.01;100.00;99251.28;1807499;78;25441;-45
2024/01/24 10:50:26;;;;;;;10.88;6.12;;;;;;;3.05;100.00;99251.77;1807291;79;28152;-47
2024/01/24 10:53:24;;;;;;;8.25;5.50;;;;;;;3.07;100.00;99250.94;1807211;78;25456;-46
2024/01/24 10:55:53;;;;;;;7.53;4.83;;;;;;;3.11;100.00;99240.48;1807275;79;25424;-46
2024/01/24 10:58:22;;;;;;;10.13;5.37;;;;;;;3.15;100.00;99230.80;1807437;78;26128;-49
2024/01/24 11:00:52;;;;;;;9.65;5.53;;;;;;;3.19;100.00;99225.16;1807553;78;25457;-46
2024/01/24 11:03:18;;;;;;;21.30;14.87;;;;;;;3.23;100.00;99226.16;1807470;78;28129;-47
2024/01/24 11:05:50;;;;;;;71.57;47.90;;;;;;;3.30;100.00;99219.95;1807266;78;25406;-48
2024/01/24 11:08:22;;;;;;;17.82;11.68;;;;;;;3.39;100.00;99211.27;1807377;78;25440;-47
2024/01/24 11:10:51;;;;;;;8.18;5.78;;;;;;;3.47;100.00;99210.08;1807320;78;25433;-48
2024/01/24 11:13:22;;;;;;;8.75;5.62;;;;;;;3.53;100.00;99202.80;1807459;79;25315;-47
2024/01/24 11:15:47;;;;;;;7.83;5.13;;;;;;;3.62;100.00;99204.29;1806912;79;27471;-47
2024/01/24 11:18:31;;;;;;;8.88;5.28;;;;;;;3.67;100.00;99204.22;1807493;78;25359;-49
2024/01/24 11:21:00;;;;;;;8.83;5.20;;;;;;;3.69;100.00;99198.03;1807326;79;25355;-47
2024/01/24 11:23:40;;;;;;;13.75;9.53;;;;;;;3.72;100.00;99196.91;1807453;78;25448;-48
2024/01/24 11:26:23;;;;;;;7.67;5.00;;;;;;;3.77;100.00;99194.70;1807348;79;25366;-47